Time;durP1;ratioP1;P1;durP2;ratioP2;P2;SDS_P1;SDS_P2;PMS_P1;PMS_P2;Temp;Humidity;BMP_temperature;BMP_pressure;BME280_temperature;BME280_humidity;BME280_pressure;Samples;Min_cycle;Max_cycle;Signal;HPM_P1;HPM_P2
2022/04/01 00:00:39;;;;;;;6.43;1.90;;;2.40;99.90;;;0.63;60.17;100534.22;4985174;28;20147;-72
2022/04/01 00:03:06;;;;;;;7.15;1.65;;;2.40;99.90;;;0.63;60.77;100552.34;4969584;28;20039;-72
2022/04/01 00:05:35;;;;;;;5.97;1.80;;;2.30;99.90;;;0.61;61.10;100542.00;4986617;28;20057;-73
2022/04/01 00:08:02;;;;;;;5.22;1.77;;;2.40;99.90;;;0.60;61.84;100529.91;4979132;28;20045;-72
2022/04/01 00:10:29;;;;;;;10.00;1.55;;;2.30;99.90;;;0.65;62.42;100524.69;4986718;28;20042;-72
2022/04/01 00:12:55;;;;;;;4.43;1.40;;;2.40;99.90;;;0.67;62.01;100530.72;4971984;28;20042;-72
2022/04/01 00:15:21;;;;;;;3.95;1.55;;;2.40;99.90;;;0.66;62.40;100526.41;5030758;23;20041;-75
2022/04/01 00:17:47;;;;;;;4.20;1.70;;;2.40;99.90;;;0.66;62.82;100528.13;5029236;28;20031;-75
2022/04/01 00:20:14;;;;;;;6.07;1.70;;;2.40;99.90;;;0.66;63.08;100520.38;5025742;28;20025;-75
2022/04/01 00:22:41;;;;;;;1.80;0.82;;;2.40;99.90;;;0.63;63.75;100530.72;5008356;28;20036;-75
2022/04/01 00:25:08;;;;;;;7.40;1.67;;;2.30;99.90;;;0.60;64.13;100536.81;5019453;28;20562;-75
2022/04/01 00:27:35;;;;;;;4.70;1.50;;;2.40;99.90;;;0.57;64.44;100522.16;5021072;28;20033;-74
2022/04/01 00:30:01;;;;;;;4.82;1.73;;;2.30;99.90;;;0.60;64.63;100526.44;5006203;28;20120;-75
2022/04/01 00:32:29;;;;;;;14.32;2.40;;;2.30;99.90;;;0.61;64.59;100523.84;4997682;28;20037;-75
2022/04/01 00:34:55;;;;;;;5.55;2.63;;;2.30;99.90;;;0.64;65.19;100527.28;4988736;28;20038;-75
2022/04/01 00:37:21;;;;;;;5.18;2.03;;;2.30;99.90;;;0.63;64.65;100562.72;5002021;28;20447;-75
2022/04/01 00:39:47;;;;;;;6.55;1.98;;;2.30;99.90;;;0.63;65.27;100520.38;5005958;28;20072;-75
2022/04/01 00:42:13;;;;;;;6.22;2.53;;;2.30;99.90;;;0.66;64.88;100531.56;4994921;28;20118;-75
2022/04/01 00:44:42;;;;;;;2.67;1.42;;;2.40;99.90;;;0.65;65.21;100516.03;5005594;28;20061;-75
2022/04/01 00:47:14;;;;;;;5.28;2.50;;;2.40;99.90;;;0.70;65.80;100516.88;4996748;28;20101;-75
2022/04/01 00:49:43;;;;;;;5.07;1.90;;;2.40;99.90;;;0.70;65.65;100545.38;5005468;28;20040;-75
2022/04/01 00:52:14;;;;;;;7.47;2.28;;;2.40;99.90;;;0.72;66.08;100525.50;5003223;28;20109;-75
2022/04/01 00:54:42;;;;;;;6.22;1.42;;;2.40;99.90;;;0.69;66.30;100534.16;5009842;28;20167;-75
2022/04/01 00:57:12;;;;;;;7.82;2.15;;;2.40;99.90;;;0.74;66.42;100534.13;5017206;28;20033;-75
2022/04/01 00:59:38;;;;;;;4.10;1.33;;;2.40;99.90;;;0.69;66.54;100526.38;5008641;28;20025;-75
2022/04/01 01:02:14;;;;;;;7.97;2.78;;;2.40;99.90;;;0.76;67.21;100528.03;5017809;28;21236;-75
2022/04/01 01:04:41;;;;;;;7.72;1.58;;;2.40;99.90;;;0.73;66.97;100520.28;5004848;28;20034;-75
2022/04/01 01:07:07;;;;;;;10.27;2.08;;;2.40;99.90;;;0.74;67.62;100523.75;4997440;28;20030;-75
2022/04/01 01:09:33;;;;;;;3.72;2.15;;;2.50;99.90;;;0.74;68.09;100519.41;4995069;28;20116;-75
2022/04/01 01:12:00;;;;;;;7.10;1.85;;;2.50;99.90;;;0.73;68.34;100517.69;4996661;28;20025;-76
2022/04/01 01:14:34;;;;;;;3.33;1.35;;;2.40;99.90;;;0.75;68.40;100536.66;5005597;28;20025;-75
2022/04/01 01:17:05;;;;;;;8.35;1.88;;;2.50;99.90;;;0.78;68.23;100522.84;5005825;28;20560;-75
2022/04/01 01:19:31;;;;;;;5.05;2.00;;;2.40;99.90;;;0.77;68.61;100523.72;5004813;28;20042;-76
2022/04/01 01:21:59;;;;;;;4.43;2.10;;;2.50;99.90;;;0.80;68.52;100524.53;4997415;28;20025;-75
2022/04/01 01:26:59;;;;;;;5.55;1.85;;;2.50;99.90;;;0.76;69.16;100520.25;5010978;22;20072;-75
2022/04/01 01:29:29;;;;;;;7.45;1.60;;;2.40;99.90;;;0.72;69.36;100512.53;5006342;28;20040;-75
2022/04/01 01:31:58;;;;;;;4.80;2.10;;;2.50;99.90;;;0.76;69.56;100519.41;5008159;28;20126;-74
2022/04/01 01:34:27;;;;;;;7.45;2.28;;;2.50;99.90;;;0.76;69.79;100504.72;5039599;28;20038;-75
2022/04/01 01:36:54;;;;;;;4.40;1.50;;;2.50;99.90;;;0.76;70.19;100509.03;5039540;28;20033;-75
2022/04/01 01:39:21;;;;;;;18.48;2.78;;;2.50;99.90;;;0.75;70.52;100509.91;4994827;28;20546;-75
2022/04/01 01:41:53;;;;;;;6.78;1.73;;;2.50;99.90;;;0.76;70.77;100515.06;5005730;28;20034;-75
2022/04/01 01:44:22;;;;;;;10.20;1.70;;;2.50;99.90;;;0.76;70.60;100502.13;4994983;28;20036;-75
2022/04/01 01:46:50;;;;;;;5.60;1.83;;;2.50;99.90;;;0.77;70.75;100509.00;4989027;28;20036;-75
2022/04/01 01:49:16;;;;;;;4.22;1.70;;;2.50;99.90;;;0.76;70.80;100509.91;5005795;28;20402;-75
2022/04/01 01:54:46;;;;;;;6.90;2.03;;;2.50;99.90;;;0.78;70.94;100494.34;5002626;28;20100;-75
2022/04/01 01:57:22;;;;;;;5.80;1.50;;;2.50;99.90;;;0.77;71.31;100497.78;5008900;28;20083;-75
2022/04/01 01:59:49;;;;;;;6.22;1.65;;;2.50;99.90;;;0.76;71.68;100498.66;5004994;28;20048;-74
2022/04/01 02:02:15;;;;;;;14.52;2.30;;;2.50;99.90;;;0.76;71.21;100502.13;5004504;28;20550;-75
2022/04/01 02:04:42;;;;;;;3.38;1.63;;;2.50;99.90;;;0.76;71.89;100493.50;5003138;28;20084;-75
2022/04/01 02:07:10;;;;;;;8.02;2.03;;;2.50;99.90;;;0.77;71.33;100477.06;5004490;28;20493;-75
2022/04/01 02:09:40;;;;;;;5.50;1.88;;;2.40;99.90;;;0.70;71.61;100478.00;4995663;28;20038;-75
2022/04/01 02:12:07;;;;;;;11.55;2.20;;;2.40;99.90;;;0.73;71.45;100475.38;4996085;28;20510;-75
2022/04/01 02:14:34;;;;;;;6.43;2.00;;;2.50;99.90;;;0.75;70.96;100466.69;5007814;28;20080;-76
2022/04/01 02:17:01;;;;;;;6.50;1.73;;;2.50;99.90;;;0.75;70.38;100465.84;4998647;28;20030;-75
2022/04/01 02:19:30;;;;;;;6.45;2.35;;;2.50;99.90;;;0.74;71.00;100475.34;4999934;28;20026;-75
2022/04/01 02:21:57;;;;;;;3.85;1.63;;;2.50;99.90;;;0.73;71.21;100476.22;5010181;28;20026;-75
2022/04/01 02:24:24;;;;;;;4.28;1.50;;;2.50;99.90;;;0.74;70.83;100477.94;5007055;28;20045;-75
2022/04/01 02:26:51;;;;;;;10.38;2.22;;;2.40;99.90;;;0.73;70.88;100483.13;5006584;28;20038;-75
2022/04/01 02:29:20;;;;;;;7.93;2.20;;;2.40;99.90;;;0.75;71.45;100473.63;5008212;28;20045;-75
2022/04/01 02:31:52;;;;;;;7.10;1.77;;;2.50;99.90;;;0.75;71.89;100481.38;4998918;28;20052;-76
2022/04/01 02:34:25;;;;;;;6.22;1.73;;;2.40;99.90;;;0.73;72.14;100463.25;4999563;28;20406;-75
2022/04/01 02:36:52;;;;;;;7.88;2.50;;;2.40;99.90;;;0.72;72.53;100474.50;5007081;28;20116;-75
2022/04/01 02:39:19;;;;;;;5.03;1.42;;;2.40;99.90;;;0.68;72.70;100472.81;4999093;28;20490;-75
2022/04/01 02:41:45;;;;;;;5.55;1.45;;;2.40;99.90;;;0.68;72.78;100478.00;5040461;28;20048;-75
2022/04/01 02:44:14;;;;;;;4.13;1.77;;;2.40;99.90;;;0.70;72.54;100468.47;5007580;28;20021;-75
2022/04/01 02:46:44;;;;;;;3.85;1.65;;;2.40;99.90;;;0.71;73.03;100471.94;5004017;28;20681;-75
2022/04/01 02:49:18;;;;;;;5.18;1.80;;;2.40;99.90;;;0.68;73.02;100464.19;5000219;28;20483;-75
2022/04/01 02:51:47;;;;;;;7.32;1.50;;;2.40;99.90;;;0.70;73.50;100465.03;5008453;28;20029;-75
2022/04/01 02:54:14;;;;;;;4.30;1.67;;;2.40;99.90;;;0.68;73.62;100469.38;5006369;28;20022;-75
2022/04/01 02:56:42;;;;;;;5.80;1.48;;;2.40;99.90;;;0.65;73.99;100449.53;5008551;28;20096;-76
2022/04/01 02:59:09;;;;;;;4.45;1.27;;;2.40;99.90;;;0.69;73.93;100452.94;5010036;28;20045;-75
2022/04/01 03:01:38;;;;;;;3.33;1.70;;;2.40;99.90;;;0.70;73.90;100465.03;5012103;28;20054;-75
2022/04/01 03:04:09;;;;;;;2.17;1.10;;;2.40;99.90;;;0.66;73.96;100464.19;5015653;28;20026;-75
2022/04/01 03:06:43;;;;;;;8.95;2.10;;;2.40;99.90;;;0.70;73.72;100452.94;5008158;28;20037;-75
2022/04/01 03:09:13;;;;;;;8.25;1.48;;;2.40;99.90;;;0.69;74.11;100456.41;4993690;28;20033;-75
2022/04/01 03:11:41;;;;;;;10.02;1.70;;;2.40;99.90;;;0.67;73.91;100465.06;5009079;28;20061;-75
2022/04/01 03:14:10;;;;;;;6.43;1.25;;;2.40;99.90;;;0.62;74.27;100462.50;5008695;28;20045;-75
2022/04/01 03:16:40;;;;;;;5.00;1.80;;;2.30;99.90;;;0.59;73.95;100465.16;5003078;28;20041;-75
2022/04/01 03:19:08;;;;;;;6.00;1.70;;;2.30;99.90;;;0.59;74.09;100472.91;5009075;28;20041;-76
2022/04/01 03:21:45;;;;;;;3.28;1.30;;;2.30;99.90;;;0.62;74.03;100462.50;5009403;28;20034;-75
2022/04/01 03:24:11;;;;;;;2.00;1.15;;;2.40;99.90;;;0.62;73.73;100462.50;5022504;28;20036;-75
2022/04/01 03:26:39;;;;;;;8.38;1.80;;;2.30;99.90;;;0.64;73.65;100463.34;5002724;28;20162;-75
2022/04/01 03:29:07;;;;;;;7.93;1.70;;;2.40;99.90;;;0.64;73.34;100463.34;5026141;28;20040;-75
2022/04/01 03:31:35;;;;;;;4.20;1.25;;;2.40;99.90;;;0.63;73.38;100463.38;5006538;28;20061;-75
2022/04/01 03:34:01;;;;;;;9.70;1.92;;;2.30;99.90;;;0.61;73.18;100463.41;4999856;28;20022;-75
2022/04/01 03:36:27;;;;;;;6.40;1.83;;;2.30;99.90;;;0.63;72.64;100464.25;5014852;28;20187;-76
2022/04/01 03:38:53;;;;;;;3.83;1.63;;;2.30;99.90;;;0.63;72.51;100469.44;5012099;28;20042;-75
2022/04/01 03:41:20;;;;;;;7.65;1.38;;;2.40;99.90;;;0.61;72.50;100466.84;5016718;28;20033;-75
2022/04/01 03:43:47;;;;;;;3.22;1.27;;;2.30;99.90;;;0.59;72.81;100468.59;5001067;28;20030;-76
2022/04/01 03:46:18;;;;;;;6.47;1.58;;;2.30;99.90;;;0.58;72.60;100469.47;4987798;28;20133;-75
2022/04/01 03:49:07;;;;;;;4.88;1.02;;;2.30;99.90;;;0.54;72.86;100478.16;5039662;28;20054;-75
2022/04/01 03:51:38;;;;;;;3.30;1.02;;;2.30;99.90;;;0.53;72.87;100472.97;4995100;28;20715;-76
2022/04/01 03:54:07;;;;;;;3.15;1.02;;;2.30;99.90;;;0.54;72.53;100477.25;4990320;28;20490;-75
2022/04/01 03:56:36;;;;;;;6.60;1.40;;;2.20;99.90;;;0.55;72.19;100479.00;5006449;28;20094;-75
2022/04/01 03:59:09;;;;;;;5.60;1.75;;;2.20;99.90;;;0.56;71.76;100483.28;4999266;28;20502;-75
2022/04/01 04:01:37;;;;;;;2.72;1.17;;;2.30;99.90;;;0.53;71.72;100484.19;5006325;28;20677;-76
2022/04/01 04:04:04;;;;;;;6.45;1.75;;;2.20;99.90;;;0.53;72.25;100479.00;5006534;28;20029;-75
2022/04/01 04:06:38;;;;;;;5.30;1.38;;;2.30;99.90;;;0.56;72.34;100484.19;5006162;28;20040;-75
2022/04/01 04:09:04;;;;;;;8.50;1.42;;;2.30;99.90;;;0.55;72.21;100482.44;5022441;28;20584;-75
2022/04/01 04:11:34;;;;;;;4.88;1.33;;;2.30;99.90;;;0.51;72.42;100491.13;4982860;28;20017;-75
2022/04/01 04:14:03;;;;;;;4.05;1.20;;;2.20;99.90;;;0.51;72.61;100482.50;5022179;28;20112;-75
2022/04/01 04:16:46;;;;;;;10.02;1.88;;;2.20;99.90;;;0.51;72.70;100485.94;4996684;28;20049;-75
2022/04/01 04:19:34;;;;;;;7.07;1.75;;;2.20;99.90;;;0.48;72.44;100488.56;4980465;28;20099;-75
2022/04/01 04:22:14;;;;;;;4.45;1.38;;;2.20;99.90;;;0.52;72.42;100492.84;4998376;28;20049;-75
2022/04/01 04:24:48;;;;;;;5.32;1.30;;;2.20;99.90;;;0.48;73.03;100485.97;5004045;28;20536;-75
2022/04/01 04:27:17;;;;;;;9.25;1.75;;;2.20;99.90;;;0.50;72.73;100489.41;5010079;28;20460;-75
2022/04/01 04:29:52;;;;;;;5.38;1.77;;;2.60;99.90;;;0.55;72.73;100495.41;4998150;28;20037;-76
2022/04/01 04:32:52;;;;;;;2.28;1.10;;;2.30;99.90;;;0.64;71.85;100504.81;5005246;28;20613;-75
2022/04/01 04:35:21;;;;;;;8.75;1.42;;;2.30;99.90;;;0.64;71.31;100493.59;4995605;28;20136;-75
2022/04/01 04:37:51;;;;;;;5.50;1.45;;;2.30;99.90;;;0.64;71.17;100494.44;5004911;28;20061;-75
2022/04/01 04:40:19;;;;;;;6.72;2.00;;;2.30;99.90;;;0.68;71.53;100492.69;4989730;28;20042;-75
2022/04/01 04:42:51;;;;;;;4.25;1.58;;;2.30;99.90;;;0.67;72.08;100496.16;4995857;28;20041;-75
2022/04/01 04:45:20;;;;;;;4.15;1.52;;;2.40;99.90;;;0.70;72.40;100496.13;4996980;28;20561;-75
2022/04/01 04:47:48;;;;;;;5.47;1.67;;;2.40;99.90;;;0.67;72.87;100494.44;5005349;28;20045;-75
2022/04/01 04:50:16;;;;;;;4.78;1.30;;;2.40;99.90;;;0.73;73.04;100507.31;4994751;28;20105;-75
2022/04/01 04:52:49;;;;;;;2.97;1.08;;;2.40;99.90;;;0.78;72.93;100505.56;5016640;28;20092;-75
2022/04/01 04:55:18;;;;;;;5.22;1.38;;;2.40;99.90;;;0.80;72.87;100508.13;4990956;28;20046;-75
2022/04/01 04:57:46;;;;;;;4.95;1.30;;;2.50;99.90;;;0.81;72.91;100496.88;5006762;28;20481;-75
2022/04/01 05:00:19;;;;;;;7.47;1.48;;;2.50;99.90;;;0.87;72.28;100507.19;5013115;28;20121;-75
2022/04/01 05:03:29;;;;;;;4.30;0.90;;;2.60;99.90;;;0.94;71.61;100503.66;4999277;28;20047;-74
2022/04/01 05:05:59;;;;;;;7.70;1.63;;;2.60;99.90;;;0.99;70.88;100514.84;4997488;28;20038;-74
2022/04/01 05:08:58;;;;;;;3.58;1.15;;;2.60;99.90;;;1.02;69.75;100526.91;5004041;28;20026;-75
2022/04/01 05:11:51;;;;;;;5.40;1.50;;;2.70;99.90;;;1.07;69.17;100516.50;5006818;28;20521;-75
2022/04/01 05:14:36;;;;;;;10.57;1.55;;;2.70;99.90;;;1.12;68.79;100505.16;5005589;28;20117;-75
2022/04/01 05:17:08;;;;;;;4.53;1.20;;;2.70;99.90;;;1.14;68.93;100525.91;4997189;28;20052;-75
2022/04/01 05:19:40;;;;;;;6.43;1.77;;;2.80;99.90;;;1.25;69.28;100528.38;4989165;28;21312;-75
2022/04/01 05:22:09;;;;;;;6.30;1.08;;;2.90;99.90;;;1.31;69.23;100523.97;5004839;28;20076;-76
2022/04/01 05:24:42;;;;;;;3.88;1.52;;;2.90;99.90;;;1.30;68.46;100524.88;5005052;28;20040;-75
2022/04/01 05:27:32;;;;;;;7.03;1.73;;;2.90;99.90;;;1.43;67.99;100526.44;5001405;28;20034;-75
2022/04/01 05:30:13;;;;;;;2.45;1.20;;;3.00;99.90;;;1.54;67.66;100564.38;5015701;28;20030;-75
2022/04/01 05:32:47;;;;;;;6.32;1.20;;;3.10;99.90;;;1.53;66.35;100532.34;4993088;28;20104;-75
2022/04/01 05:35:14;;;;;;;6.72;1.58;;;3.10;99.90;;;1.53;65.26;100532.34;5004697;28;20037;-75
2022/04/01 05:37:42;;;;;;;2.97;1.23;;;3.10;99.90;;;1.61;64.46;100534.88;5004394;28;20405;-75
2022/04/01 05:40:09;;;;;;;2.25;0.90;;;3.20;99.90;;;1.63;64.15;100546.09;4985452;28;20479;-75
2022/04/01 05:42:38;;;;;;;6.95;1.38;;;3.20;99.90;;;1.67;64.12;100547.78;5003660;28;20040;-74
2022/04/01 05:45:06;;;;;;;3.97;1.27;;;3.20;99.90;;;1.81;63.73;100545.88;5006011;28;20041;-75
2022/04/01 05:47:33;;;;;;;7.28;1.65;;;3.30;99.90;;;1.86;63.21;100548.41;4997153;28;20029;-75
2022/04/01 05:50:00;;;;;;;10.98;1.30;;;3.30;99.90;;;1.90;62.81;100557.88;5008103;28;20650;-75
2022/04/01 05:52:27;;;;;;;3.50;1.55;;;3.40;99.90;;;1.97;62.71;100546.50;5004528;28;20038;-75
2022/04/01 05:54:57;;;;;;;3.63;1.00;;;3.50;99.90;;;2.08;62.54;100559.34;5008452;28;20140;-75
2022/04/01 05:57:23;;;;;;;4.68;1.25;;;3.50;99.90;;;2.04;61.40;100566.31;4999120;28;20461;-75
2022/04/01 05:59:49;;;;;;;11.93;1.10;;;3.50;99.90;;;2.08;60.16;100559.34;5002533;28;20047;-75
2022/04/01 06:02:43;;;;;;;6.55;1.60;;;3.50;99.90;;;2.31;59.73;100556.41;5005749;28;20083;-75
2022/04/01 06:05:35;;;;;;;6.35;1.42;;;3.60;99.90;;;2.29;59.12;100575.47;4992539;28;20021;-76
2022/04/01 06:08:33;;;;;;;1.90;0.90;;;3.70;99.90;;;2.57;58.33;100570.69;5004465;28;20034;-73
2022/04/01 06:11:29;;;;;;;9.02;1.67;;;3.90;99.90;;;2.88;58.08;100573.66;4988310;28;20084;-74
2022/04/01 06:14:24;;;;;;;6.30;1.83;;;4.10;99.90;;;3.08;57.38;100583.72;5000752;28;20026;-74
2022/04/01 06:17:05;;;;;;;3.22;1.20;;;4.20;99.90;;;3.08;57.30;100587.16;4993002;28;21450;-74
2022/04/01 06:19:47;;;;;;;5.75;0.90;;;4.20;99.90;;;3.19;56.38;100594.78;4994418;28;20037;-74
2022/04/01 06:22:22;;;;;;;5.55;1.65;;;4.30;99.90;;;3.54;55.76;100597.59;4989633;28;20032;-76
2022/04/01 06:25:12;;;;;;;15.23;1.33;;;4.40;99.90;;;3.60;54.35;100600.09;5024444;28;20522;-73
2022/04/01 06:27:46;;;;;;;3.45;1.30;;;4.60;99.90;;;3.82;53.23;100618.72;5001669;28;20553;-74
2022/04/01 06:30:19;;;;;;;11.50;1.60;;;4.70;99.90;;;4.40;52.98;100603.59;5008768;28;20014;-75
2022/04/01 06:32:54;;;;;;;7.47;1.52;;;4.80;99.90;;;3.95;52.22;100614.97;5015305;28;20085;-74
2022/04/01 06:35:38;;;;;;;15.45;1.30;;;4.90;99.90;;;3.97;51.85;100612.34;4982736;28;20049;-75
2022/04/01 06:38:07;;;;;;;5.40;1.27;;;4.90;99.90;;;4.13;51.26;100615.50;4994406;28;20105;-74
2022/04/01 06:41:15;;;;;;;4.70;1.10;;;5.00;99.90;;;4.33;50.11;100621.13;5002155;28;20037;-74
2022/04/01 06:43:41;;;;;;;;;;;5.00;99.90;;;4.11;50.03;100618.97;4991485;28;20041;-74
2022/04/01 06:46:08;;;;;;;2.03;0.80;;;5.10;99.90;;;4.19;50.05;100647.50;5000614;28;20377;-75
2022/04/01 06:48:34;;;;;;;2.15;1.10;;;5.00;99.40;;;4.17;49.32;100620.59;5002764;28;20041;-74
2022/04/01 06:51:00;;;;;;;5.13;1.17;;;5.10;98.20;;;4.63;46.80;100621.31;5010392;28;20203;-74
2022/04/01 06:53:28;;;;;;;2.60;1.02;;;5.30;98.10;;;5.22;45.70;100632.00;5006080;28;20594;-75
2022/04/01 06:55:54;;;;;;;4.30;1.40;;;5.50;96.80;;;5.32;44.46;100650.91;5014746;28;20046;-74
2022/04/01 06:58:25;;;;;;;3.53;1.08;;;5.70;96.70;;;5.77;43.48;100666.25;5002597;28;20030;-75
2022/04/01 07:00:52;;;;;;;3.28;1.00;;;5.80;96.10;;;5.43;43.39;100653.22;5022033;28;20041;-74
2022/04/01 07:03:18;;;;;;;8.38;1.27;;;6.00;95.30;;;5.68;42.73;100664.75;5002934;28;20026;-74
2022/04/01 07:05:45;;;;;;;5.28;1.17;;;5.90;94.90;;;5.41;42.54;100660.25;4989338;28;20017;-75
2022/04/01 07:08:11;;;;;;;14.68;1.45;;;5.90;95.10;;;5.44;42.39;100668.88;5025198;28;20049;-74
2022/04/01 07:10:39;;;;;;;11.68;2.25;;;5.90;94.60;;;5.33;42.30;100679.59;5002748;28;20053;-74
2022/04/01 07:13:05;;;;;;;17.42;1.52;;;5.90;94.30;;;4.89;42.57;100689.34;4983561;28;20103;-76
2022/04/01 07:15:31;;;;;;;7.25;1.13;;;5.80;93.60;;;4.45;42.03;100683.44;4993033;28;20140;-74
2022/04/01 07:17:58;;;;;;;11.90;1.35;;;5.70;93.70;;;4.29;43.05;100689.84;4985668;28;20327;-74
2022/04/01 07:20:25;;;;;;;2.75;1.17;;;5.50;94.40;;;4.12;44.13;100679.78;4991324;28;20034;-74
2022/04/01 07:22:52;;;;;;;8.27;1.58;;;5.40;95.10;;;4.18;44.95;100700.50;4992267;28;20028;-74
2022/04/01 07:25:18;;;;;;;9.80;1.17;;;5.40;94.50;;;4.34;44.08;100698.41;4986588;28;20040;-75
2022/04/01 07:27:47;;;;;;;19.50;2.17;;;5.40;94.00;;;4.55;43.88;100691.03;4987400;28;20060;-74
2022/04/01 07:30:13;;;;;;;19.50;2.17;;;5.60;94.00;;;4.62;43.32;100680.44;5003165;28;20034;-74
2022/04/01 07:32:40;;;;;;;28.83;2.05;;;5.80;93.40;;;4.72;42.92;100696.72;4979933;28;20053;-74
2022/04/01 07:35:11;;;;;;;23.25;3.55;;;5.80;93.90;;;4.72;43.19;100713.22;4995050;28;20171;-74
2022/04/01 07:37:38;;;;;;;7.13;1.40;;;5.70;94.20;;;4.45;43.68;100726.88;5018911;28;20037;-74
2022/04/01 07:40:05;;;;;;;4.25;1.33;;;5.60;93.00;;;4.18;42.73;100707.47;5000787;28;20430;-75
2022/04/01 07:42:32;;;;;;;3.35;1.13;;;5.40;92.90;;;4.21;42.42;100723.91;4985724;28;20169;-75
2022/04/01 07:44:58;;;;;;;10.23;1.25;;;5.20;92.80;;;3.84;42.76;100716.78;4961713;28;20064;-74
2022/04/01 07:47:24;;;;;;;3.53;1.10;;;5.20;93.70;;;4.09;43.55;100717.19;5015438;28;20090;-74
2022/04/01 07:49:52;;;;;;;3.70;0.90;;;5.40;94.00;;;4.29;43.62;100731.56;4973090;28;20475;-74
2022/04/01 07:52:21;;;;;;;9.35;1.00;;;5.20;93.30;;;4.09;43.02;100711.97;5000030;28;20029;-74
2022/04/01 07:54:49;;;;;;;2.47;1.10;;;5.30;93.50;;;4.29;43.27;100723.72;5001118;28;20508;-75
2022/04/01 07:57:18;;;;;;;4.97;0.95;;;5.20;93.50;;;4.04;43.36;100744.19;5003325;28;20644;-74
2022/04/01 07:59:44;;;;;;;6.22;1.60;;;5.20;92.90;;;3.90;43.02;100732.31;4991479;28;20040;-74
2022/04/01 08:02:11;;;;;;;6.38;1.00;;;5.40;93.30;;;4.52;42.67;100755.41;5005334;28;20054;-74
2022/04/01 08:04:37;;;;;;;5.05;1.08;;;5.70;93.40;;;4.81;42.43;100758.28;5007135;28;20026;-74
2022/04/01 08:07:03;;;;;;;4.63;1.10;;;5.80;93.90;;;4.97;42.82;100744.00;5004984;28;20494;-75
2022/04/01 08:09:29;;;;;;;6.15;1.02;;;5.90;93.30;;;4.73;42.37;100748.03;5020523;28;20033;-74
2022/04/01 08:11:55;;;;;;;10.70;1.38;;;6.00;93.10;;;4.78;42.19;100735.72;4990190;28;20029;-74
2022/04/01 08:14:22;;;;;;;31.42;1.38;;;6.10;92.90;;;5.06;41.72;100738.56;4982050;28;20107;-75
2022/04/01 08:16:49;;;;;;;6.88;1.52;;;6.10;93.20;;;5.13;42.76;100747.09;4999369;28;20430;-74
2022/04/01 08:19:15;;;;;;;4.43;0.90;;;6.20;94.00;;;5.43;43.29;100757.69;4999415;28;20033;-74
2022/04/01 08:21:44;;;;;;;7.20;1.63;;;6.50;93.90;;;5.48;43.07;100756.66;4995720;28;21437;-74
2022/04/01 08:24:16;;;;;;;3.17;0.70;;;6.50;93.70;;;5.51;42.94;100740.94;5003556;28;20470;-75
2022/04/01 08:26:42;;;;;;;13.40;1.45;;;6.40;93.70;;;5.24;43.09;100752.91;5001079;28;20045;-74
2022/04/01 08:29:08;;;;;;;6.40;1.77;;;6.40;94.20;;;5.10;44.18;100761.06;5001057;28;20083;-74
2022/04/01 08:31:35;;;;;;;3.25;1.02;;;6.50;94.80;;;5.31;44.47;100740.56;4980014;28;20046;-74
2022/04/01 08:34:02;;;;;;;4.78;1.15;;;6.50;95.80;;;5.44;45.52;100744.59;5004246;28;20068;-74
2022/04/01 08:36:29;;;;;;;3.63;1.20;;;6.40;96.10;;;5.37;46.52;100752.63;5015252;28;20038;-74
2022/04/01 08:38:55;;;;;;;7.90;1.05;;;6.70;95.80;;;5.63;45.89;100754.56;5015065;28;20033;-73
2022/04/01 08:41:22;;;;;;;7.60;1.23;;;6.90;96.70;;;5.77;46.41;100757.69;5018387;28;20110;-74
2022/04/01 08:43:50;;;;;;;4.72;0.88;;;6.90;95.70;;;5.52;45.87;100754.84;5000397;28;20148;-74
2022/04/01 08:46:19;;;;;;;5.50;0.73;;;6.60;96.40;;;4.99;47.58;100768.31;4982439;28;20072;-75
2022/04/01 08:48:46;;;;;;;7.47;1.10;;;6.40;96.10;;;4.77;47.26;100765.28;5002088;28;20034;-75
2022/04/01 08:51:13;;;;;;;2.17;1.08;;;6.10;96.60;;;4.36;48.41;100763.56;4976470;28;20056;-78
2022/04/01 08:53:44;;;;;;;8.18;1.17;;;5.80;97.00;;;4.31;49.16;100759.31;4998331;28;20061;-75
2022/04/01 08:56:11;;;;;;;3.08;1.02;;;5.60;97.50;;;3.93;49.75;100760.06;4990331;28;20037;-75
2022/04/01 08:58:37;;;;;;;4.07;0.82;;;5.60;98.30;;;4.02;50.57;100765.09;5015875;28;20022;-75
2022/04/01 09:01:05;;;;;;;7.90;1.35;;;5.50;98.10;;;3.87;50.89;100770.59;4990611;28;20030;-74
2022/04/01 09:03:34;;;;;;;5.22;1.50;;;5.40;98.10;;;3.93;50.70;100782.63;4988393;28;20026;-75
2022/04/01 09:06:03;;;;;;;6.22;1.02;;;5.30;98.00;;;3.65;50.67;100786.59;4985397;28;20112;-75
2022/04/01 09:08:42;;;;;;;3.17;1.17;;;5.10;98.40;;;3.47;50.92;100784.28;5005807;28;20119;-75
2022/04/01 09:11:18;;;;;;;9.13;1.33;;;4.80;98.30;;;3.20;51.22;100783.84;4988558;28;20120;-74
2022/04/01 09:13:47;;;;;;;5.90;1.20;;;4.80;98.70;;;3.24;51.89;100811.56;5002662;28;21095;-75
2022/04/01 09:16:38;;;;;;;2.97;0.85;;;4.90;99.30;;;3.33;51.69;100774.13;4993276;28;20068;-75
2022/04/01 09:19:08;;;;;;;10.07;1.15;;;4.80;98.70;;;3.30;51.85;100779.34;4991851;28;20021;-75
2022/04/01 09:21:39;;;;;;;16.38;1.58;;;4.80;98.60;;;3.25;51.46;100773.38;4967380;28;20026;-75
2022/04/01 09:24:07;;;;;;;10.50;1.30;;;4.80;98.80;;;3.29;51.53;100780.25;4994135;28;20433;-75
2022/04/01 09:26:38;;;;;;;6.57;1.10;;;4.80;99.10;;;3.34;51.64;100782.78;4999215;28;20042;-74
2022/04/01 09:29:08;;;;;;;2.47;0.85;;;4.90;99.30;;;3.56;51.68;100778.06;5012367;28;20768;-75
2022/04/01 09:31:40;;;;;;;3.35;0.98;;;5.00;99.30;;;3.80;51.57;100782.00;4993537;28;20029;-75
2022/04/01 09:34:13;;;;;;;10.15;1.38;;;5.10;99.00;;;3.82;51.51;100780.22;4995928;28;20077;-76
2022/04/01 09:36:43;;;;;;;2.22;0.88;;;5.20;98.20;;;3.72;50.55;100763.91;5008119;28;20528;-74
2022/04/01 09:39:19;;;;;;;12.85;1.17;;;5.20;98.10;;;3.87;50.14;100776.66;4997754;28;20051;-75
2022/04/01 09:41:52;;;;;;;4.53;1.27;;;5.30;96.90;;;3.75;49.01;100779.47;5011930;28;20513;-75
2022/04/01 09:44:36;;;;;;;7.28;1.35;;;5.20;97.40;;;3.79;49.11;100798.53;4988820;28;20085;-75
2022/04/01 09:47:07;;;;;;;12.23;1.63;;;5.10;96.60;;;3.53;48.51;100775.53;5002265;28;20189;-76
2022/04/01 09:49:42;;;;;;;14.75;1.45;;;5.00;96.70;;;3.55;48.81;100798.06;5003620;28;20516;-75
2022/04/01 09:52:15;;;;;;;4.82;1.02;;;5.00;97.20;;;3.65;48.98;100783.13;4983713;28;20497;-75
2022/04/01 09:54:55;;;;;;;8.43;1.48;;;5.10;96.90;;;3.60;48.82;100795.38;4997625;28;20109;-76
2022/04/01 09:57:25;;;;;;;4.85;0.90;;;5.00;98.00;;;3.70;49.53;100789.97;5024893;28;20062;-76
2022/04/01 09:59:53;;;;;;;7.13;1.10;;;5.10;98.20;;;3.90;50.04;100760.09;4998682;28;20378;-75
2022/04/01 10:02:20;;;;;;;8.80;1.52;;;5.30;98.40;;;4.28;50.00;100776.78;4967031;28;20405;-75
2022/04/01 10:04:47;;;;;;;8.40;1.42;;;5.60;97.40;;;4.23;48.79;100773.38;4984622;28;20026;-75
2022/04/01 10:07:14;;;;;;;11.13;1.17;;;5.50;96.70;;;3.98;48.31;100768.66;4996913;28;20514;-75
2022/04/01 10:09:43;;;;;;;5.65;1.25;;;5.40;96.90;;;3.80;48.51;100776.78;4987509;28;20036;-75
2022/04/01 10:12:16;;;;;;;8.13;1.15;;;5.30;97.30;;;3.80;49.24;100785.47;4984424;28;20026;-76
2022/04/01 10:14:45;;;;;;;1.98;0.75;;;5.30;97.30;;;3.79;49.36;100778.53;5001083;28;20030;-75
2022/04/01 10:17:14;;;;;;;8.50;1.20;;;5.20;97.30;;;3.90;48.97;100802.66;5006710;28;20111;-76
2022/04/01 10:19:47;;;;;;;10.57;1.25;;;5.30;97.70;;;3.99;49.18;100800.75;5002014;28;20133;-75
2022/04/01 10:22:16;;;;;;;2.63;1.02;;;5.30;98.20;;;4.03;49.36;100769.41;4994308;28;20038;-76
2022/04/01 10:24:59;;;;;;;3.50;0.90;;;5.30;98.20;;;4.19;50.13;100771.72;4967808;28;20493;-75
2022/04/01 10:27:40;;;;;;;3.90;0.90;;;5.70;96.90;;;4.59;47.86;100773.53;5000309;28;20144;-76
2022/04/01 10:30:14;;;;;;;5.18;1.30;;;5.90;96.30;;;4.70;47.14;100775.00;4997138;28;20041;-75
2022/04/01 10:32:51;;;;;;;5.57;1.08;;;6.00;96.70;;;4.66;47.62;100786.38;5001325;28;20030;-76
2022/04/01 10:35:32;;;;;;;7.22;1.02;;;5.80;96.70;;;4.35;48.33;100782.72;4992866;28;20095;-75
2022/04/01 10:38:30;;;;;;;4.88;1.15;;;5.80;97.00;;;4.56;48.31;100770.97;4984110;28;20026;-76
2022/04/01 10:41:12;;;;;;;8.57;1.25;;;6.10;96.50;;;5.04;47.27;100786.47;5005335;28;20029;-75
2022/04/01 10:43:51;;;;;;;5.93;1.05;;;6.40;96.60;;;5.02;47.03;100789.09;4994151;28;20112;-76
2022/04/01 10:46:22;;;;;;;4.93;1.10;;;6.10;94.80;;;4.69;45.58;100786.34;4960224;28;20060;-76